createdAt,value
2022-11-24T00:00:01.366Z,16.83
2022-11-24T00:01:03.642Z,16.27
2022-11-24T00:02:01.342Z,12.57
2022-11-24T00:03:01.397Z,17.00
2022-11-24T00:04:03.075Z,18.57
2022-11-24T00:05:01.564Z,18.90
2022-11-24T00:06:03.579Z,21.67
2022-11-24T00:07:00.968Z,22.07
2022-11-24T00:08:01.241Z,19.43
2022-11-24T00:09:03.192Z,21.13
2022-11-24T00:10:01.333Z,20.90
2022-11-24T00:11:03.728Z,20.07
2022-11-24T00:12:02.019Z,21.03
2022-11-24T00:13:02.080Z,25.20
2022-11-24T00:14:02.521Z,23.43
2022-11-24T00:15:01.359Z,27.37
2022-11-24T00:16:05.431Z,22.07
2022-11-24T00:17:01.014Z,23.20
2022-11-24T00:18:00.946Z,25.70
2022-11-24T00:19:03.546Z,23.60
2022-11-24T00:20:01.292Z,23.13
2022-11-24T00:21:02.778Z,24.20
2022-11-24T00:22:01.256Z,25.03
2022-11-24T00:23:00.971Z,21.43
2022-11-24T00:24:02.172Z,26.67
2022-11-24T00:25:00.949Z,25.00
2022-11-24T00:26:06.764Z,25.87
2022-11-24T00:27:01.453Z,27.93
2022-11-24T00:28:00.933Z,25.53
2022-11-24T00:29:03.552Z,26.47
2022-11-24T00:30:01.293Z,28.53
2022-11-24T00:31:02.381Z,27.57
2022-11-24T00:32:01.286Z,27.20
2022-11-24T00:33:01.300Z,27.53
2022-11-24T00:34:03.931Z,29.27
2022-11-24T00:35:01.372Z,26.53
2022-11-24T00:36:01.024Z,28.27
2022-11-24T00:37:01.266Z,32.67
2022-11-24T00:38:01.578Z,29.87
2022-11-24T00:39:03.857Z,29.83
2022-11-24T00:40:00.976Z,31.07
2022-11-24T00:41:01.302Z,32.60
2022-11-24T00:42:01.242Z,29.83
2022-11-24T00:43:01.250Z,27.93
2022-11-24T00:44:01.104Z,28.10
2022-11-24T00:45:12.985Z,32.87
2022-11-24T00:46:01.349Z,35.17
2022-11-24T00:47:01.305Z,35.50
2022-11-24T00:48:01.267Z,36.57
2022-11-24T00:49:01.508Z,32.07
2022-11-24T00:50:01.256Z,33.63
2022-11-24T00:51:04.029Z,34.47
2022-11-24T00:52:01.314Z,30.63
2022-11-24T00:53:01.282Z,31.97
2022-11-24T00:54:01.706Z,37.43
2022-11-24T00:55:00.975Z,35.13
2022-11-24T00:56:01.628Z,33.90
2022-11-24T00:57:02.114Z,37.83
2022-11-24T00:58:01.732Z,36.67
2022-11-24T00:59:00.993Z,28.90
2022-11-24T01:00:01.535Z,32.53
2022-11-24T01:01:03.233Z,31.43
2022-11-24T01:02:00.977Z,30.07
2022-11-24T01:03:01.339Z,31.70
2022-11-24T01:04:03.235Z,29.67
2022-11-24T01:05:01.247Z,32.00
2022-11-24T01:06:03.676Z,28.60
2022-11-24T01:07:00.949Z,28.03
2022-11-24T01:08:00.969Z,28.77
2022-11-24T01:09:02.268Z,24.83
2022-11-24T01:10:01.861Z,26.10
2022-11-24T01:11:12.414Z,27.77
2022-11-24T01:12:00.944Z,25.10
2022-11-24T01:13:01.762Z,27.40
2022-11-24T01:14:00.963Z,21.60
2022-11-24T01:15:01.308Z,21.73
2022-11-24T01:16:00.971Z,18.37
2022-11-24T01:17:01.013Z,18.97
2022-11-24T01:18:01.315Z,20.40
2022-11-24T01:19:01.365Z,17.93
2022-11-24T01:20:01.288Z,25.70
2022-11-24T01:21:09.643Z,26.13
2022-11-24T01:22:01.690Z,23.73
2022-11-24T01:23:01.244Z,25.47
2022-11-24T01:24:01.260Z,25.93
2022-11-24T01:25:01.403Z,21.43
2022-11-24T01:26:04.798Z,22.17
2022-11-24T01:27:01.255Z,21.37
2022-11-24T01:28:00.978Z,20.30
2022-11-24T01:29:01.278Z,19.87
2022-11-24T01:30:02.048Z,18.60
2022-11-24T01:31:03.719Z,17.87
2022-11-24T01:32:00.953Z,16.80
2022-11-24T01:33:01.392Z,16.83
2022-11-24T01:34:00.941Z,18.90
2022-11-24T01:35:01.813Z,18.77
2022-11-24T01:36:03.252Z,18.10
2022-11-24T01:37:01.247Z,17.97
2022-11-24T01:38:01.261Z,17.80
2022-11-24T01:39:01.250Z,15.10
2022-11-24T01:40:01.264Z,17.43
2022-11-24T01:41:03.802Z,18.07
2022-11-24T01:42:01.278Z,15.40
2022-11-24T01:43:01.253Z,17.70
2022-11-24T01:44:20.448Z,13.20
2022-11-24T01:45:20.425Z,18.20
2022-11-24T01:46:12.128Z,15.97
2022-11-24T01:47:05.871Z,15.80
2022-11-24T01:48:06.401Z,14.77
2022-11-24T01:49:08.828Z,13.87
2022-11-24T01:50:03.934Z,15.17
2022-11-24T01:51:07.187Z,18.53
2022-11-24T01:52:07.886Z,17.67
2022-11-24T01:53:01.800Z,17.97
2022-11-24T01:54:05.177Z,20.40
2022-11-24T01:55:06.120Z,17.90
2022-11-24T01:56:02.267Z,20.40
2022-11-24T01:57:07.161Z,18.83
2022-11-24T01:58:05.205Z,20.80
2022-11-24T01:59:04.255Z,21.67
2022-11-24T02:00:04.320Z,22.57
2022-11-24T02:01:01.509Z,18.93
2022-11-24T02:02:01.769Z,26.37
2022-11-24T02:03:01.392Z,23.77
2022-11-24T02:04:05.985Z,18.97
2022-11-24T02:05:05.299Z,21.00
2022-11-24T02:06:08.161Z,18.13
2022-11-24T02:07:05.024Z,21.67
2022-11-24T02:08:02.379Z,24.03
2022-11-24T02:09:07.716Z,22.23
2022-11-24T02:10:07.538Z,21.93
2022-11-24T02:11:03.924Z,18.50
2022-11-24T02:12:02.522Z,19.43
2022-11-24T02:13:01.946Z,22.93
2022-11-24T02:14:01.340Z,19.67
2022-11-24T02:15:01.436Z,21.70
2022-11-24T02:16:02.030Z,22.80
2022-11-24T02:17:01.521Z,19.83
2022-11-24T02:18:00.967Z,22.33
2022-11-24T02:19:02.685Z,25.93
2022-11-24T02:20:05.009Z,22.63
2022-11-24T02:21:01.284Z,22.60
2022-11-24T02:22:03.415Z,20.50
2022-11-24T02:23:09.387Z,21.30
2022-11-24T02:24:08.593Z,27.27
2022-11-24T02:25:06.806Z,27.70
2022-11-24T02:26:11.326Z,30.20
2022-11-24T02:27:01.502Z,26.10
2022-11-24T02:28:06.398Z,25.40
2022-11-24T02:29:01.619Z,22.73
2022-11-24T02:30:01.365Z,25.60
2022-11-24T02:31:02.704Z,25.00
2022-11-24T02:32:06.016Z,22.57
2022-11-24T02:33:01.716Z,24.40
2022-11-24T02:34:01.291Z,22.80
2022-11-24T02:35:01.973Z,19.80
2022-11-24T02:36:01.255Z,23.90
2022-11-24T02:37:01.312Z,22.87
2022-11-24T02:38:01.244Z,21.90
2022-11-24T02:39:01.077Z,22.37
2022-11-24T02:40:01.400Z,23.80
2022-11-24T02:41:04.264Z,22.23
2022-11-24T02:42:05.440Z,20.27
2022-11-24T02:43:06.889Z,30.90
2022-11-24T02:44:01.568Z,32.63
2022-11-24T02:45:01.443Z,33.17
2022-11-24T02:46:01.790Z,30.03
2022-11-24T02:47:02.863Z,35.37
2022-11-24T02:48:01.353Z,35.90
2022-11-24T02:49:00.934Z,36.73
2022-11-24T02:50:01.598Z,35.43
2022-11-24T02:51:00.950Z,35.47
2022-11-24T02:52:01.473Z,30.17
2022-11-24T02:53:00.960Z,28.80
2022-11-24T02:54:01.281Z,28.60
2022-11-24T02:55:01.462Z,29.37
2022-11-24T02:56:00.958Z,25.23
2022-11-24T02:57:01.260Z,23.77
2022-11-24T02:58:00.969Z,28.70
2022-11-24T02:59:00.991Z,28.03
2022-11-24T03:00:01.357Z,32.27
2022-11-24T03:01:01.344Z,27.13
2022-11-24T03:02:01.321Z,23.90
2022-11-24T03:03:01.179Z,22.20
2022-11-24T03:04:00.941Z,25.87
2022-11-24T03:05:01.146Z,25.30
2022-11-24T03:06:01.259Z,27.93
2022-11-24T03:07:01.365Z,25.80
2022-11-24T03:08:01.256Z,26.27
2022-11-24T03:09:01.335Z,25.57
2022-11-24T03:10:00.957Z,26.27
2022-11-24T03:11:02.000Z,22.47
2022-11-24T03:12:01.220Z,20.70
2022-11-24T03:13:00.976Z,24.07
2022-11-24T03:14:01.306Z,20.97
2022-11-24T03:15:01.323Z,23.63
2022-11-24T03:16:01.364Z,25.13
2022-11-24T03:17:01.307Z,23.53
2022-11-24T03:18:01.310Z,24.53
2022-11-24T03:19:01.570Z,27.03
2022-11-24T03:20:04.668Z,26.17
2022-11-24T03:21:01.262Z,23.57
2022-11-24T03:22:01.269Z,29.00
2022-11-24T03:23:01.570Z,24.33
2022-11-24T03:24:01.238Z,25.90
2022-11-24T03:25:00.956Z,29.93
2022-11-24T03:26:07.910Z,27.80
2022-11-24T03:27:01.395Z,23.10
2022-11-24T03:28:00.959Z,24.20
2022-11-24T03:29:01.268Z,23.23
2022-11-24T03:30:01.284Z,22.30
2022-11-24T03:31:02.140Z,23.60
2022-11-24T03:32:01.750Z,24.23
2022-11-24T03:33:00.943Z,24.50
2022-11-24T03:34:01.405Z,25.87
2022-11-24T03:35:00.997Z,27.00
2022-11-24T03:36:01.374Z,25.20
2022-11-24T03:37:01.331Z,26.57
2022-11-24T03:38:01.275Z,28.33
2022-11-24T03:39:01.398Z,32.80
2022-11-24T03:40:01.189Z,33.33
2022-11-24T03:41:01.245Z,32.10
2022-11-24T03:42:00.937Z,31.87
2022-11-24T03:43:00.945Z,30.93
2022-11-24T03:44:01.698Z,30.63
2022-11-24T03:45:16.740Z,37.47
2022-11-24T03:46:02.042Z,39.70
2022-11-24T03:47:00.949Z,37.53
2022-11-24T03:48:01.322Z,30.97
2022-11-24T03:49:01.044Z,28.67
2022-11-24T03:50:00.946Z,30.63
2022-11-24T03:51:02.168Z,26.03
2022-11-24T03:52:07.639Z,27.07
2022-11-24T03:53:01.415Z,25.43
2022-11-24T03:54:02.068Z,25.43
2022-11-24T03:55:00.955Z,26.63
2022-11-24T03:56:02.326Z,24.03
2022-11-24T03:57:01.261Z,27.30
2022-11-24T03:58:01.354Z,28.23
2022-11-24T03:59:01.502Z,26.80
2022-11-24T04:00:01.254Z,26.70
2022-11-24T04:01:01.248Z,29.67
2022-11-24T04:02:00.973Z,25.57
2022-11-24T04:03:01.107Z,25.77
2022-11-24T04:04:00.958Z,25.57
2022-11-24T04:05:01.268Z,26.00
2022-11-24T04:06:01.603Z,28.80
2022-11-24T04:07:01.599Z,30.07
2022-11-24T04:08:01.414Z,29.67
2022-11-24T04:09:01.254Z,28.83
2022-11-24T04:10:01.278Z,29.80
2022-11-24T04:11:01.634Z,28.90
2022-11-24T04:12:01.398Z,31.60
2022-11-24T04:13:01.544Z,26.80
2022-11-24T04:14:01.268Z,29.13
2022-11-24T04:15:00.962Z,32.87
2022-11-24T04:16:05.531Z,30.33
2022-11-24T04:17:02.907Z,33.87
2022-11-24T04:18:01.269Z,34.27
2022-11-24T04:19:01.274Z,36.20
2022-11-24T04:20:01.478Z,32.57
2022-11-24T04:21:00.966Z,29.20
2022-11-24T04:22:00.940Z,32.57
2022-11-24T04:23:01.599Z,33.77
2022-11-24T04:24:00.951Z,37.83
2022-11-24T04:25:01.689Z,33.10
2022-11-24T04:26:01.266Z,29.87
2022-11-24T04:27:01.276Z,29.80
2022-11-24T04:28:01.307Z,33.20
2022-11-24T04:29:01.494Z,30.43
2022-11-24T04:30:00.964Z,28.50
2022-11-24T04:31:01.833Z,30.70
2022-11-24T04:32:01.337Z,30.70
2022-11-24T04:33:01.594Z,26.97
2022-11-24T04:34:01.240Z,28.63
2022-11-24T04:35:01.249Z,29.30
2022-11-24T04:36:01.312Z,28.30
2022-11-24T04:37:01.307Z,34.30
2022-11-24T04:38:01.989Z,36.30
2022-11-24T04:39:24.086Z,32.77
2022-11-24T04:40:01.747Z,29.37
2022-11-24T04:41:01.602Z,28.77
2022-11-24T04:42:00.965Z,28.40
2022-11-24T04:43:00.980Z,30.53
2022-11-24T04:44:00.975Z,29.00
2022-11-24T04:45:01.361Z,27.73
2022-11-24T04:46:01.775Z,29.07
2022-11-24T04:47:01.070Z,28.03
2022-11-24T04:48:01.264Z,30.90
2022-11-24T04:49:01.276Z,31.93
2022-11-24T04:50:01.315Z,34.80
2022-11-24T04:51:04.189Z,33.23
2022-11-24T04:52:01.252Z,33.20
2022-11-24T04:53:01.248Z,33.47
2022-11-24T04:54:00.942Z,30.10
2022-11-24T04:55:01.311Z,28.90
2022-11-24T04:56:03.856Z,30.07
2022-11-24T04:57:00.956Z,30.80
2022-11-24T04:58:01.250Z,30.17
2022-11-24T04:59:06.648Z,29.17
2022-11-24T05:00:01.381Z,28.00
2022-11-24T05:01:05.698Z,26.50
2022-11-24T05:02:01.658Z,29.37
2022-11-24T05:03:02.056Z,33.40
2022-11-24T05:04:01.204Z,25.57
2022-11-24T05:05:01.273Z,31.00
2022-11-24T05:06:01.009Z,30.53
2022-11-24T05:07:01.048Z,27.60
2022-11-24T05:08:01.025Z,29.43
2022-11-24T05:09:01.370Z,28.57
2022-11-24T05:10:01.871Z,30.13
2022-11-24T05:11:04.515Z,31.73
2022-11-24T05:12:01.235Z,29.33
2022-11-24T05:13:02.753Z,29.50
2022-11-24T05:14:00.937Z,31.27
2022-11-24T05:15:04.423Z,29.70
2022-11-24T05:16:00.951Z,33.27
2022-11-24T05:17:01.249Z,28.57
2022-11-24T05:18:05.102Z,30.07
2022-11-24T05:19:01.244Z,32.90
2022-11-24T05:20:01.260Z,33.40
2022-11-24T05:21:00.961Z,30.30
2022-11-24T05:22:00.940Z,27.73
2022-11-24T05:23:02.741Z,30.13
2022-11-24T05:24:01.494Z,28.83
2022-11-24T05:25:01.214Z,28.87
2022-11-24T05:26:01.945Z,31.97
2022-11-24T05:27:01.233Z,33.10
2022-11-24T05:28:02.550Z,31.73
2022-11-24T05:29:01.008Z,30.10
2022-11-24T05:30:01.271Z,30.70
2022-11-24T05:31:02.665Z,32.57
2022-11-24T05:32:00.923Z,32.07
2022-11-24T05:33:05.020Z,33.00
2022-11-24T05:34:01.939Z,31.03
2022-11-24T05:35:01.435Z,29.70
2022-11-24T05:36:04.183Z,32.57
2022-11-24T05:37:00.911Z,32.93
2022-11-24T05:38:01.666Z,30.80
2022-11-24T05:39:01.071Z,27.07
2022-11-24T05:40:01.387Z,28.70
2022-11-24T05:41:01.911Z,30.47
2022-11-24T05:42:02.404Z,30.97
2022-11-24T05:43:01.269Z,30.20
2022-11-24T05:44:01.220Z,30.93
2022-11-24T05:45:00.935Z,28.70
2022-11-24T05:46:01.414Z,29.10
2022-11-24T05:47:01.602Z,30.70
2022-11-24T05:48:04.066Z,28.03
2022-11-24T05:49:01.249Z,29.83
2022-11-24T05:50:01.695Z,30.37
2022-11-24T05:51:04.160Z,32.70
2022-11-24T05:52:00.904Z,35.20
2022-11-24T05:53:03.345Z,30.90
2022-11-24T05:54:00.921Z,30.23
2022-11-24T05:55:01.353Z,28.67
2022-11-24T05:56:02.510Z,32.90
2022-11-24T05:57:01.608Z,30.80
2022-11-24T05:58:02.919Z,32.60
2022-11-24T05:59:03.124Z,29.33
2022-11-24T06:00:03.192Z,32.33
2022-11-24T06:01:05.266Z,33.57
2022-11-24T06:02:01.165Z,31.23
2022-11-24T06:03:01.324Z,30.30
2022-11-24T06:04:01.282Z,30.53
2022-11-24T06:05:01.232Z,32.67
2022-11-24T06:06:01.338Z,33.30
2022-11-24T06:07:01.258Z,30.10
2022-11-24T06:08:01.236Z,32.23
2022-11-24T06:09:00.921Z,27.93
2022-11-24T06:10:00.941Z,31.53
2022-11-24T06:11:01.732Z,31.80
2022-11-24T06:12:01.405Z,37.20
2022-11-24T06:13:04.652Z,32.97
2022-11-24T06:14:00.932Z,33.17
2022-11-24T06:15:01.770Z,33.33
2022-11-24T06:16:00.969Z,32.03
2022-11-24T06:17:01.906Z,33.40
2022-11-24T06:18:01.232Z,32.63
2022-11-24T06:19:01.950Z,31.93
2022-11-24T06:20:01.220Z,32.13
2022-11-24T06:21:10.887Z,31.73
2022-11-24T06:22:00.926Z,30.07
2022-11-24T06:23:01.318Z,32.73
2022-11-24T06:24:01.075Z,33.17
2022-11-24T06:25:02.015Z,28.60
2022-11-24T06:26:01.243Z,32.70
2022-11-24T06:27:01.071Z,34.30
2022-11-24T06:28:03.396Z,30.77
2022-11-24T06:29:01.211Z,29.43
2022-11-24T06:30:01.641Z,33.30
2022-11-24T06:31:01.809Z,32.33
2022-11-24T06:32:01.433Z,31.37
2022-11-24T06:33:01.242Z,34.93
2022-11-24T06:34:01.499Z,30.80
2022-11-24T06:35:01.352Z,35.80
2022-11-24T06:36:02.670Z,36.90
2022-11-24T06:37:01.687Z,36.27
2022-11-24T06:38:01.214Z,33.90
2022-11-24T06:39:01.529Z,32.53
2022-11-24T06:40:01.238Z,29.77
2022-11-24T06:41:02.929Z,34.13
2022-11-24T06:42:01.519Z,32.83
2022-11-24T06:43:00.949Z,30.30
2022-11-24T06:44:02.322Z,32.40
2022-11-24T06:45:01.321Z,27.83
2022-11-24T06:46:01.921Z,34.13
2022-11-24T06:47:00.932Z,26.60
2022-11-24T06:48:01.697Z,27.07
2022-11-24T06:49:01.234Z,27.10
2022-11-24T06:50:01.282Z,30.47
2022-11-24T06:51:02.469Z,31.90
2022-11-24T06:52:01.118Z,32.37
2022-11-24T06:53:01.224Z,29.57
2022-11-24T06:54:05.134Z,31.37
2022-11-24T06:55:01.551Z,33.23
2022-11-24T06:56:01.819Z,30.67
2022-11-24T06:57:00.952Z,28.90
2022-11-24T06:58:01.257Z,29.30
2022-11-24T06:59:01.631Z,31.93
2022-11-24T07:00:01.483Z,28.97
2022-11-24T07:01:01.299Z,26.77
2022-11-24T07:02:00.953Z,31.37
2022-11-24T07:03:01.575Z,31.03
2022-11-24T07:04:01.263Z,31.53
2022-11-24T07:05:00.949Z,33.77
2022-11-24T07:06:00.947Z,29.23
2022-11-24T07:07:02.825Z,29.07
2022-11-24T07:08:01.350Z,33.27
2022-11-24T07:09:01.309Z,31.63
2022-11-24T07:10:01.288Z,26.27
2022-11-24T07:11:03.901Z,29.67
2022-11-24T07:12:01.303Z,29.03
2022-11-24T07:13:01.000Z,29.27
2022-11-24T07:14:02.059Z,28.03
2022-11-24T07:15:01.612Z,30.17
2022-11-24T07:16:09.204Z,26.63
2022-11-24T07:17:01.243Z,25.67
2022-11-24T07:18:01.280Z,27.67
2022-11-24T07:19:02.001Z,29.47
2022-11-24T07:20:01.230Z,29.83
2022-11-24T07:21:03.309Z,32.07
2022-11-24T07:22:00.949Z,28.70
2022-11-24T07:23:01.229Z,27.40
2022-11-24T07:24:01.282Z,27.70
2022-11-24T07:25:01.553Z,31.77
2022-11-24T07:26:06.524Z,31.00
2022-11-24T07:27:01.197Z,28.43
2022-11-24T07:28:01.216Z,25.80
2022-11-24T07:29:00.920Z,25.83
2022-11-24T07:30:01.797Z,33.07
2022-11-24T07:31:05.857Z,30.20
2022-11-24T07:32:05.484Z,25.70
2022-11-24T07:33:03.208Z,25.80
2022-11-24T07:34:00.951Z,29.37
2022-11-24T07:35:01.235Z,28.30
2022-11-24T07:36:02.701Z,31.83
2022-11-24T07:37:00.961Z,32.67
2022-11-24T07:38:00.948Z,32.07
2022-11-24T07:39:01.206Z,35.33
2022-11-24T07:40:01.216Z,29.10
2022-11-24T07:41:02.254Z,31.80
2022-11-24T07:42:01.408Z,30.57
2022-11-24T07:43:01.662Z,31.47
2022-11-24T07:44:01.541Z,26.20
2022-11-24T07:45:01.441Z,31.30
2022-11-24T07:46:01.580Z,25.00
2022-11-24T07:47:01.170Z,25.87
2022-11-24T07:48:00.927Z,28.03
2022-11-24T07:49:00.999Z,26.33
2022-11-24T07:50:01.248Z,29.17
2022-11-24T07:51:01.987Z,28.90
2022-11-24T07:52:00.940Z,29.17
2022-11-24T07:53:02.301Z,29.20
2022-11-24T07:54:01.240Z,27.00
2022-11-24T07:55:01.297Z,27.13
2022-11-24T07:56:03.379Z,29.43
2022-11-24T07:57:01.221Z,26.10
2022-11-24T07:58:01.610Z,27.33
2022-11-24T07:59:00.928Z,28.40
2022-11-24T08:00:01.126Z,25.07
2022-11-24T08:01:09.592Z,26.40
2022-11-24T08:02:01.288Z,26.90
2022-11-24T08:03:01.283Z,29.93
2022-11-24T08:04:01.262Z,27.37
2022-11-24T08:05:01.571Z,26.57
2022-11-24T08:06:23.151Z,27.70
2022-11-24T08:07:01.707Z,27.83
2022-11-24T08:08:00.937Z,25.17
2022-11-24T08:09:01.859Z,23.20
2022-11-24T08:10:00.927Z,25.07
2022-11-24T08:11:05.227Z,22.13
2022-11-24T08:12:01.269Z,24.17
2022-11-24T08:13:01.863Z,24.00
2022-11-24T08:14:00.980Z,22.70
2022-11-24T08:15:04.312Z,25.97
2022-11-24T08:16:04.636Z,23.20
2022-11-24T08:17:01.490Z,21.33
2022-11-24T08:18:01.413Z,25.03
2022-11-24T08:19:00.921Z,21.97
2022-11-24T08:20:01.369Z,32.50
2022-11-24T08:21:02.049Z,42.77
2022-11-24T08:22:00.933Z,38.47
2022-11-24T08:23:01.614Z,33.00
2022-11-24T08:24:01.232Z,30.03
2022-11-24T08:25:01.236Z,26.37
2022-11-24T08:26:04.075Z,24.83
2022-11-24T08:27:01.250Z,24.20
2022-11-24T08:28:03.305Z,26.50
2022-11-24T08:29:01.285Z,23.67
2022-11-24T08:30:00.915Z,24.70
2022-11-24T08:31:02.961Z,20.90
2022-11-24T08:32:01.124Z,25.57
2022-11-24T08:33:00.943Z,23.33
2022-11-24T08:34:03.007Z,22.67
2022-11-24T08:35:13.506Z,24.33
2022-11-24T08:36:02.788Z,23.70
2022-11-24T08:37:03.006Z,23.27
2022-11-24T08:38:04.659Z,23.03
2022-11-24T08:39:01.607Z,23.47
2022-11-24T08:40:01.237Z,23.10
2022-11-24T08:41:01.963Z,23.90
2022-11-24T08:42:01.460Z,24.70
2022-11-24T08:43:01.666Z,21.47
2022-11-24T08:44:01.190Z,21.43
2022-11-24T08:45:17.508Z,24.63
2022-11-24T08:46:03.921Z,22.53
2022-11-24T08:47:01.237Z,21.70
2022-11-24T08:48:00.907Z,22.83
2022-11-24T08:49:01.252Z,25.70
2022-11-24T08:50:01.235Z,25.03
2022-11-24T08:51:06.655Z,21.93
2022-11-24T08:52:00.941Z,21.33
2022-11-24T08:53:01.140Z,18.70
2022-11-24T08:54:02.069Z,22.60
2022-11-24T08:55:01.209Z,20.07
2022-11-24T08:56:04.019Z,20.30
2022-11-24T08:57:00.954Z,21.30
2022-11-24T08:58:00.951Z,20.87
2022-11-24T08:59:01.659Z,17.70
2022-11-24T09:00:01.051Z,20.57
2022-11-24T09:01:05.168Z,20.33
2022-11-24T09:02:01.259Z,19.37
2022-11-24T09:03:01.220Z,22.60
2022-11-24T09:04:02.252Z,20.13
2022-11-24T09:05:01.329Z,18.47
2022-11-24T09:06:01.313Z,18.67
2022-11-24T09:07:01.578Z,22.03
2022-11-24T09:08:01.439Z,19.37
2022-11-24T09:09:01.800Z,22.50
2022-11-24T09:10:01.127Z,19.67
2022-11-24T09:11:02.449Z,19.83
2022-11-24T09:12:01.627Z,24.87
2022-11-24T09:13:01.224Z,26.77
2022-11-24T09:14:01.399Z,24.13
2022-11-24T09:15:01.283Z,20.80
2022-11-24T09:16:02.480Z,24.17
2022-11-24T09:17:01.295Z,23.03
2022-11-24T09:18:01.229Z,23.83
2022-11-24T09:19:02.756Z,28.57
2022-11-24T09:20:00.967Z,26.77
2022-11-24T09:21:08.849Z,25.80
2022-11-24T09:22:01.257Z,26.10
2022-11-24T09:23:01.213Z,26.13
2022-11-24T09:24:01.237Z,28.57
2022-11-24T09:25:00.947Z,26.07
2022-11-24T09:26:04.907Z,26.40
2022-11-24T09:27:01.241Z,25.80
2022-11-24T09:28:00.929Z,25.27
2022-11-24T09:29:03.318Z,27.67
2022-11-24T09:30:01.331Z,25.20
2022-11-24T09:31:01.642Z,26.00
2022-11-24T09:32:06.538Z,24.97
2022-11-24T09:33:01.232Z,23.70
2022-11-24T09:34:02.665Z,19.80
2022-11-24T09:35:01.427Z,23.73
2022-11-24T09:36:02.163Z,23.03
2022-11-24T09:37:01.146Z,25.10
2022-11-24T09:38:01.214Z,22.60
2022-11-24T09:39:00.931Z,21.23
2022-11-24T09:40:00.941Z,26.63
2022-11-24T09:41:20.396Z,22.17
2022-11-24T09:42:11.820Z,23.77
2022-11-24T09:43:08.076Z,21.90
2022-11-24T09:44:08.127Z,24.03
2022-11-24T09:45:15.451Z,21.97
2022-11-24T09:46:08.060Z,19.67
2022-11-24T09:47:10.801Z,23.33
2022-11-24T09:48:09.326Z,19.27
2022-11-24T09:49:03.796Z,20.73
2022-11-24T09:50:04.962Z,19.17
2022-11-24T09:51:05.056Z,20.90
2022-11-24T09:52:06.994Z,17.80
2022-11-24T09:53:08.237Z,18.77
2022-11-24T09:54:05.409Z,18.40
2022-11-24T09:55:04.154Z,20.80
2022-11-24T09:56:11.840Z,22.70
2022-11-24T09:57:05.895Z,18.70
2022-11-24T09:58:11.653Z,20.80
2022-11-24T09:59:09.747Z,20.40
2022-11-24T10:00:10.728Z,19.60
2022-11-24T10:01:04.732Z,19.27
2022-11-24T10:02:01.118Z,17.77
2022-11-24T10:03:01.164Z,19.87
2022-11-24T10:04:06.405Z,21.17
2022-11-24T10:05:01.367Z,20.27
2022-11-24T10:06:10.640Z,19.43
2022-11-24T10:07:08.951Z,19.70
2022-11-24T10:08:08.583Z,20.30
2022-11-24T10:09:16.123Z,20.13
2022-11-24T10:10:07.463Z,19.27
2022-11-24T10:11:09.296Z,19.10
2022-11-24T10:12:12.836Z,21.57
2022-11-24T10:13:16.365Z,20.37
2022-11-24T10:14:20.399Z,20.40
2022-11-24T10:15:13.502Z,22.83
2022-11-24T10:16:11.614Z,21.20
2022-11-24T10:17:13.454Z,18.30
2022-11-24T10:18:19.954Z,21.40
2022-11-24T10:19:14.320Z,21.20
2022-11-24T10:20:05.348Z,20.97
2022-11-24T10:21:12.579Z,19.67
2022-11-24T10:22:15.430Z,22.50
2022-11-24T10:23:18.931Z,21.40
2022-11-24T10:24:20.411Z,20.73
2022-11-24T10:25:11.002Z,19.40
2022-11-24T10:26:03.995Z,19.83
2022-11-24T10:27:10.017Z,19.40
2022-11-24T10:28:04.292Z,18.50
2022-11-24T10:29:01.328Z,21.87
2022-11-24T10:30:02.039Z,21.00
2022-11-24T10:31:16.886Z,21.97
2022-11-24T10:32:12.767Z,20.73
2022-11-24T10:33:07.607Z,22.83
2022-11-24T10:34:09.401Z,19.37
2022-11-24T10:35:14.012Z,21.43
2022-11-24T10:36:07.642Z,18.43
2022-11-24T10:37:05.699Z,19.70
2022-11-24T10:38:12.028Z,19.63
2022-11-24T10:39:08.682Z,19.80
2022-11-24T10:40:26.884Z,24.00
2022-11-24T10:41:07.548Z,20.23
2022-11-24T10:42:11.766Z,19.17
2022-11-24T10:43:01.241Z,21.63
2022-11-24T10:44:00.939Z,21.60
2022-11-24T10:45:03.494Z,21.93
2022-11-24T10:46:10.768Z,20.20
2022-11-24T10:47:02.011Z,18.17
2022-11-24T10:48:00.976Z,18.10
2022-11-24T10:49:04.307Z,22.30
2022-11-24T10:50:03.963Z,21.30
2022-11-24T10:51:15.643Z,16.67
2022-11-24T10:52:06.106Z,19.60
2022-11-24T10:53:10.715Z,19.10
2022-11-24T10:54:09.932Z,22.33
2022-11-24T10:55:04.819Z,17.70
2022-11-24T10:56:04.036Z,19.70
2022-11-24T10:57:01.571Z,21.90
2022-11-24T10:58:14.530Z,19.67
2022-11-24T10:59:20.152Z,19.77
2022-11-24T11:00:03.765Z,20.43
2022-11-24T11:01:12.442Z,17.87
2022-11-24T11:02:02.214Z,18.80
2022-11-24T11:03:15.206Z,22.47
2022-11-24T11:04:01.711Z,19.97
2022-11-24T11:05:20.415Z,15.97
2022-11-24T11:06:09.700Z,16.47
2022-11-24T11:07:15.359Z,18.27
2022-11-24T11:08:15.760Z,15.37
2022-11-24T11:09:16.365Z,18.83
2022-11-24T11:10:17.074Z,19.03
2022-11-24T11:11:17.759Z,16.10
2022-11-24T11:12:35.736Z,16.70
2022-11-24T11:13:20.392Z,18.67
2022-11-24T11:14:04.515Z,19.10
2022-11-24T11:15:20.416Z,17.60
2022-11-24T11:16:18.809Z,18.17
2022-11-24T11:17:02.613Z,15.67
2022-11-24T11:18:01.580Z,19.07
2022-11-24T11:19:02.288Z,21.60
2022-11-24T11:20:05.398Z,21.20
2022-11-24T11:21:02.190Z,22.17
2022-11-24T11:22:05.279Z,21.23
2022-11-24T11:23:12.746Z,20.13
2022-11-24T11:24:04.692Z,20.87
2022-11-24T11:25:13.317Z,19.87
2022-11-24T11:26:20.393Z,20.30
2022-11-24T11:27:03.871Z,20.57
2022-11-24T11:28:20.411Z,19.90
2022-11-24T11:31:21.071Z,23.70
2022-11-24T11:34:19.286Z,23.90
2022-11-24T11:35:01.247Z,23.23
2022-11-24T11:36:08.505Z,24.07
2022-11-24T11:37:03.490Z,21.17
2022-11-24T11:38:02.923Z,23.23
2022-11-24T11:39:02.851Z,22.33
2022-11-24T11:40:01.518Z,21.53
2022-11-24T11:41:02.450Z,22.93
2022-11-24T11:42:37.822Z,23.43
2022-11-24T11:43:09.430Z,22.13
2022-11-24T11:44:11.901Z,25.10
2022-11-24T11:45:05.722Z,21.43
2022-11-24T11:46:04.852Z,22.00
2022-11-24T11:47:12.913Z,23.07
2022-11-24T11:48:19.150Z,23.70
2022-11-24T11:49:00.923Z,23.03
2022-11-24T11:50:01.815Z,26.07
2022-11-24T11:51:23.170Z,25.67
2022-11-24T11:52:20.433Z,22.77
2022-11-24T11:53:09.050Z,22.97
2022-11-24T11:54:12.989Z,23.77
2022-11-24T11:55:17.177Z,23.00
2022-11-24T11:56:11.494Z,23.93
2022-11-24T11:57:09.626Z,20.87
2022-11-24T11:58:16.507Z,21.93
2022-11-24T11:59:18.197Z,24.33
2022-11-24T12:00:10.731Z,24.57
2022-11-24T12:01:14.324Z,23.53
2022-11-24T12:02:19.867Z,23.10
2022-11-24T12:03:20.504Z,24.67
2022-11-24T12:04:15.518Z,25.17
2022-11-24T12:05:10.863Z,24.53
2022-11-24T12:06:16.080Z,24.93
2022-11-24T12:07:20.455Z,23.40
2022-11-24T12:08:20.814Z,23.33
2022-11-24T12:09:21.238Z,26.40
2022-11-24T12:10:09.771Z,21.13
2022-11-24T12:11:07.988Z,24.37
2022-11-24T12:12:18.954Z,26.80
2022-11-24T12:13:15.653Z,24.93
2022-11-24T12:14:17.001Z,23.73
2022-11-24T12:15:12.018Z,21.70
2022-11-24T12:16:14.477Z,28.57
2022-11-24T12:17:08.718Z,24.17
2022-11-24T12:18:33.211Z,23.10
2022-11-24T12:19:15.155Z,24.47
2022-11-24T12:20:14.678Z,21.70
2022-11-24T12:21:12.350Z,24.07
2022-11-24T12:22:08.369Z,23.30
2022-11-24T12:23:16.047Z,25.60
2022-11-24T12:24:14.466Z,26.07
2022-11-24T12:25:17.910Z,26.27
2022-11-24T12:26:08.939Z,25.83
2022-11-24T12:27:08.175Z,22.43
2022-11-24T12:28:13.275Z,22.83
2022-11-24T12:29:18.139Z,23.13
2022-11-24T12:30:08.142Z,24.00
2022-11-24T12:31:05.633Z,22.70
2022-11-24T12:32:09.784Z,23.97
2022-11-24T12:33:16.268Z,23.30
2022-11-24T12:34:20.406Z,23.70
2022-11-24T12:35:14.553Z,26.27
2022-11-24T12:36:10.087Z,26.73
2022-11-24T12:37:15.476Z,24.77
2022-11-24T12:38:15.075Z,22.83
2022-11-24T12:39:07.204Z,22.20
2022-11-24T12:40:10.056Z,22.30
2022-11-24T12:41:40.339Z,22.50
2022-11-24T12:42:10.961Z,20.40
2022-11-24T12:43:11.236Z,24.50
2022-11-24T12:44:03.631Z,24.07
2022-11-24T12:45:13.510Z,23.07
2022-11-24T12:46:11.160Z,21.53
2022-11-24T12:47:13.475Z,22.63
2022-11-24T12:48:14.741Z,19.87
2022-11-24T12:49:14.163Z,23.80
2022-11-24T12:50:10.791Z,21.70
2022-11-24T12:51:03.788Z,23.70
2022-11-24T12:52:14.594Z,20.40
2022-11-24T12:53:09.683Z,22.23
2022-11-24T12:54:05.080Z,21.07
2022-11-24T12:55:01.999Z,19.97
2022-11-24T12:56:07.586Z,18.73